Aeroporto :
LOGIN :

Iscrizione | Disclaimer

   EN    FR    IT 

 










Sommario :    VFR   VFR Marginale   IFR   IFR Intensivo   IFR Molto Intensivo
Visibilità : 
Base nubi : 
>= 8 km
>= 3000ft
5 / 8 km
1000 / 3000 ft
1500m / 5 km
500 / 1000 ft
800 / 1500m
200 / 500 ft
< 800m
< 200 ft
Simboli :   Temporali  Nebbia  Neve Forte  Precipitazioni Forti  Vento > 20 kt
SIGMETs :   Varie  Temporali  Ghiacco  Turbolenza  Onda orograficha  Ceneri Vulcaniche






- Altitudine del aeroporto : 124 ft
- Codice IATA : RNS


LFRN - Rennes

ULTIMO METAR :
  • 260830Z AUTO 00000KT 0450 0300 R28/1900U R10/0375U FG FEW005 01/01 Q1019 TEMPO 1500 BR BKN003

METARs OBSOLETI :
  • 260800Z AUTO 20002KT 0900 0650 R28/P2000 R10/0750D FG NSC 01/01 Q1018 TEMPO 0500 FG VV///
  • 260730Z AUTO 00000KT 0450 0400 R28/0700D R10/0600N FG FEW003 01/01 Q1018 TEMPO 0300 FG VV///
  • 260700Z AUTO 30002KT 0550 0350 R28/0750D R10/0400N UP FG VV/// 01/01 Q1018 TEMPO 0300 FG
  • 260630Z AUTO 28004KT 0350 0250 R28/0350N R10/0400N FG VV/// 01/01 Q1018 NOSIG
  • 260600Z AUTO 14002KT 2800 0450 R28/P2000 R10/0550D BCFG NSC 02/02 Q1017 TEMPO 0300 FG VV///

TAF TAF LFRN
Valido dal 26 a 06 ore il 27 a 06 ore UTC


260500Z 2606/2706 VRB03KT 2000 BR NSC
TEMPO 2606/2610 0500 FG
PROB40
TEMPO 2606/2609 0300 FG VV///
BECMG 2608/2610 9999 NSW
TEMPO 2610/2612 1500 BR BKN003
TEMPO 2618/2706 1500 BR BKN003
ATIS : +33 2 99 67 72 50



MetMap, La meteo Aeronautica in un colpo d'occhio ! - Copyright ORBIFLY Dicembre 2007 - Disclaimer

ORBIFLY MET'MAP TEAM :

Programmazione e sviluppo : Alexandra Zaïnal
Concezione : Baudouin d'Aumeries
Aiuto per la programmazione : Marc-Olivier Méhu
Supporto tecnico e logistico : Manuel Goepfert
Aiuto per la traduzione : Arnaldo La Scala

Contatto : metmap@orbifly.com




FONTI E CREDITI :

   NOAA